createdAt,value
2019-01-03T00:00:55.292Z,2.90
2019-01-03T00:03:36.004Z,4.58
2019-01-03T00:06:21.512Z,3.37
2019-01-03T00:08:54.848Z,2.33
2019-01-03T00:11:27.678Z,6.65
2019-01-03T00:14:02.122Z,12.50
2019-01-03T00:16:37.884Z,4.00
2019-01-03T00:19:09.636Z,4.62
2019-01-03T00:21:47.028Z,4.30
2019-01-03T00:24:26.625Z,2.27
2019-01-03T00:27:08.117Z,1.80
2019-01-03T00:29:43.525Z,5.08
2019-01-03T00:32:34.080Z,3.87
2019-01-03T00:35:22.352Z,2.12
2019-01-03T00:37:59.712Z,5.25
2019-01-03T00:40:49.795Z,8.70
2019-01-03T00:43:36.252Z,4.25
2019-01-03T00:46:11.087Z,3.17
2019-01-03T00:48:51.759Z,4.85
2019-01-03T00:51:27.156Z,5.60
2019-01-03T00:53:58.888Z,2.22
2019-01-03T00:56:48.612Z,7.03
2019-01-03T00:59:27.448Z,5.50
2019-01-03T01:02:16.360Z,5.47
2019-01-03T01:04:56.796Z,2.95
2019-01-03T01:07:34.166Z,1.65
2019-01-03T01:10:24.480Z,10.95
2019-01-03T01:13:11.315Z,3.85
2019-01-03T01:15:43.327Z,4.22
2019-01-03T01:18:17.873Z,1.90
2019-01-03T01:20:52.520Z,2.25
2019-01-03T01:23:40.269Z,5.20
2019-01-03T01:26:24.561Z,4.65
2019-01-03T01:29:05.360Z,2.02
2019-01-03T01:31:44.970Z,4.05
2019-01-03T01:34:17.697Z,4.53
2019-01-03T01:37:06.512Z,3.92
2019-01-03T01:39:45.008Z,1.98
2019-01-03T01:42:31.391Z,5.03
2019-01-03T01:45:15.900Z,3.83
2019-01-03T01:47:56.711Z,5.03
2019-01-03T01:50:28.588Z,4.35
2019-01-03T01:53:16.686Z,3.17
2019-01-03T01:56:06.013Z,4.90
2019-01-03T01:59:03.021Z,2.80
2019-01-03T02:01:51.172Z,3.87
2019-01-03T02:04:37.885Z,6.92
2019-01-03T02:07:11.792Z,2.75
2019-01-03T02:09:51.940Z,3.77
2019-01-03T02:12:29.646Z,2.58
2019-01-03T02:15:04.308Z,8.68
2019-01-03T02:18:01.124Z,2.10
2019-01-03T02:20:51.096Z,2.80
2019-01-03T02:23:31.647Z,3.65
2019-01-03T02:26:18.454Z,1.80
2019-01-03T02:31:43.277Z,4.53
2019-01-03T02:34:31.233Z,7.97
2019-01-03T02:37:16.724Z,1.70
2019-01-03T02:40:04.478Z,3.52
2019-01-03T02:42:57.492Z,2.08
2019-01-03T02:45:34.667Z,8.20
2019-01-03T02:48:21.504Z,5.50
2019-01-03T02:50:56.735Z,4.20
2019-01-03T02:53:50.558Z,1.60
2019-01-03T02:56:40.260Z,3.92
2019-01-03T02:59:29.099Z,3.77
2019-01-03T03:02:16.016Z,1.22
2019-01-03T03:04:47.780Z,5.47
2019-01-03T03:07:24.938Z,4.22
2019-01-03T03:09:56.656Z,1.35
2019-01-03T03:12:39.308Z,5.72
2019-01-03T03:15:30.256Z,4.20
2019-01-03T03:18:07.780Z,4.45
2019-01-03T03:20:55.750Z,6.30
2019-01-03T03:23:27.848Z,4.78
2019-01-03T03:26:05.097Z,2.35
2019-01-03T03:28:51.768Z,5.70
2019-01-03T03:31:41.917Z,5.08
2019-01-03T03:34:29.984Z,3.62
2019-01-03T03:37:16.060Z,5.00
2019-01-03T03:40:02.228Z,2.98
2019-01-03T03:42:50.184Z,5.28
2019-01-03T03:45:30.806Z,1.85
2019-01-03T03:48:03.520Z,2.05
2019-01-03T03:50:38.116Z,5.37
2019-01-03T03:53:19.260Z,2.87
2019-01-03T03:55:50.980Z,3.52
2019-01-03T03:58:25.349Z,2.08
2019-01-03T04:01:03.959Z,4.62
2019-01-03T04:03:43.552Z,3.10
2019-01-03T04:06:24.165Z,9.40
2019-01-03T04:08:56.872Z,3.95
2019-01-03T04:11:46.786Z,6.50
2019-01-03T04:14:34.793Z,7.37
2019-01-03T04:17:14.883Z,2.60
2019-01-03T04:20:01.672Z,3.00
2019-01-03T04:22:49.696Z,4.97
2019-01-03T04:25:27.169Z,4.45
2019-01-03T04:28:07.676Z,3.30
2019-01-03T04:30:48.217Z,2.37
2019-01-03T04:33:32.250Z,2.50
2019-01-03T04:36:12.460Z,2.77
2019-01-03T04:38:48.532Z,2.77
2019-01-03T04:41:29.380Z,4.10
2019-01-03T04:44:25.416Z,12.85
2019-01-03T04:47:15.200Z,3.42
2019-01-03T04:50:07.076Z,3.55
2019-01-03T04:53:03.943Z,4.25
2019-01-03T04:55:51.716Z,2.10
2019-01-03T04:58:35.216Z,1.50
2019-01-03T05:01:47.469Z,5.78
2019-01-03T05:04:42.280Z,8.40
2019-01-03T05:07:37.746Z,4.55
2019-01-03T05:10:27.300Z,5.08
2019-01-03T05:13:15.912Z,2.72
2019-01-03T05:16:04.656Z,4.92
2019-01-03T05:19:01.684Z,4.37
2019-01-03T05:21:49.789Z,6.72
2019-01-03T05:24:37.892Z,7.85
2019-01-03T05:27:09.609Z,2.35
2019-01-03T05:29:51.001Z,4.65
2019-01-03T05:32:34.530Z,7.17
2019-01-03T05:35:06.272Z,2.72
2019-01-03T05:37:49.684Z,2.70
2019-01-03T05:40:24.016Z,4.30
2019-01-03T05:42:55.749Z,1.90
2019-01-03T05:45:43.592Z,4.78
2019-01-03T05:48:30.610Z,2.65
2019-01-03T05:51:09.877Z,8.78
2019-01-03T05:53:56.638Z,11.75
2019-01-03T05:56:46.654Z,8.45
2019-01-03T05:59:24.452Z,7.22
2019-01-03T06:02:14.672Z,2.05
2019-01-03T06:04:48.305Z,7.40
2019-01-03T06:07:41.100Z,3.45
2019-01-03T06:10:29.245Z,3.52
2019-01-03T06:13:11.231Z,6.75
2019-01-03T06:15:48.876Z,5.80
2019-01-03T06:18:39.844Z,7.70
2019-01-03T06:21:31.740Z,4.58
2019-01-03T06:24:03.608Z,2.50
2019-01-03T06:26:35.336Z,4.65
2019-01-03T06:29:23.008Z,5.50
2019-01-03T06:32:11.880Z,6.22
2019-01-03T06:34:55.373Z,8.43
2019-01-03T06:37:30.726Z,5.78
2019-01-03T06:40:11.188Z,4.83
2019-01-03T06:42:54.936Z,7.67
2019-01-03T06:45:26.680Z,5.12
2019-01-03T06:48:15.085Z,5.42
2019-01-03T06:51:03.755Z,5.87
2019-01-03T06:53:42.160Z,5.55
2019-01-03T06:56:30.161Z,3.22
2019-01-03T06:59:03.804Z,4.47
2019-01-03T07:01:35.528Z,3.45
2019-01-03T07:04:17.852Z,4.42
2019-01-03T07:06:55.331Z,6.17
2019-01-03T07:09:37.737Z,2.60
2019-01-03T07:12:18.096Z,3.17
2019-01-03T07:15:06.752Z,3.95
2019-01-03T07:17:38.469Z,3.95
2019-01-03T07:20:26.372Z,2.20
2019-01-03T07:22:58.094Z,8.00
2019-01-03T07:25:29.824Z,9.23
2019-01-03T07:28:18.044Z,10.53
2019-01-03T07:30:50.748Z,10.10
2019-01-03T07:33:28.200Z,18.90
2019-01-03T07:36:00.064Z,11.45
2019-01-03T07:38:33.812Z,7.50
2019-01-03T07:41:23.515Z,12.45
2019-01-03T07:44:09.863Z,8.98
2019-01-03T07:46:57.880Z,3.33
2019-01-03T07:49:44.224Z,3.75
2019-01-03T07:52:30.596Z,5.55
2019-01-03T07:55:15.065Z,5.60
2019-01-03T07:57:55.452Z,4.30
2019-01-03T08:00:37.980Z,4.17
2019-01-03T08:03:18.600Z,4.85
2019-01-03T08:05:59.576Z,5.87
2019-01-03T08:08:33.811Z,11.57
2019-01-03T08:11:14.224Z,8.95
2019-01-03T08:14:01.846Z,8.40
2019-01-03T08:16:36.448Z,7.85
2019-01-03T08:19:17.424Z,8.68
2019-01-03T08:22:04.292Z,13.85
2019-01-03T08:24:44.988Z,9.68
2019-01-03T08:27:31.386Z,10.30
2019-01-03T08:30:03.146Z,6.90
2019-01-03T08:32:45.880Z,6.42
2019-01-03T08:35:29.689Z,11.83
2019-01-03T08:38:18.110Z,6.20
2019-01-03T08:41:06.892Z,6.75
2019-01-03T08:43:50.948Z,8.83
2019-01-03T08:46:25.428Z,4.62
2019-01-03T08:49:00.605Z,6.08
2019-01-03T08:51:54.281Z,6.47
2019-01-03T08:54:30.081Z,9.88
2019-01-03T08:57:01.831Z,7.67
2019-01-03T08:59:42.184Z,8.75
2019-01-03T09:02:13.932Z,3.08
2019-01-03T09:04:45.916Z,5.80
2019-01-03T09:07:35.782Z,6.80
2019-01-03T09:10:13.688Z,3.22
2019-01-03T09:13:03.668Z,8.13
2019-01-03T09:15:35.404Z,4.70
2019-01-03T09:18:09.704Z,4.50
2019-01-03T09:20:43.233Z,4.92
2019-01-03T09:23:31.096Z,8.38
2019-01-03T09:26:04.817Z,7.00
2019-01-03T09:28:52.447Z,4.65
2019-01-03T09:31:25.512Z,11.28
2019-01-03T09:34:03.600Z,6.78
2019-01-03T09:36:51.388Z,4.95
2019-01-03T09:39:32.766Z,6.05
2019-01-03T09:42:35.569Z,3.47
2019-01-03T09:45:07.164Z,6.40
2019-01-03T09:47:37.272Z,8.25
2019-01-03T09:50:10.347Z,5.67
2019-01-03T09:52:43.101Z,9.65
2019-01-03T09:55:13.170Z,6.20
2019-01-03T09:57:43.249Z,4.90
2019-01-03T10:00:13.320Z,2.40
2019-01-03T10:02:43.390Z,5.42
2019-01-03T10:05:13.527Z,8.68
2019-01-03T10:07:45.584Z,4.35
2019-01-03T10:10:17.632Z,4.90
2019-01-03T10:12:48.588Z,3.85
2019-01-03T10:15:24.748Z,5.17
2019-01-03T10:17:54.828Z,3.95
2019-01-03T10:20:27.972Z,3.83
2019-01-03T10:22:58.944Z,2.10
2019-01-03T10:25:29.032Z,6.37
2019-01-03T10:28:00.052Z,6.22
2019-01-03T10:30:30.156Z,3.90
2019-01-03T10:33:00.240Z,4.67
2019-01-03T10:35:31.424Z,3.52
2019-01-03T10:38:01.496Z,5.62
2019-01-03T10:40:31.584Z,6.20
2019-01-03T10:43:06.008Z,4.37
2019-01-03T10:45:36.090Z,8.10
2019-01-03T10:48:07.282Z,3.70
2019-01-03T10:50:37.469Z,7.70
2019-01-03T10:53:10.454Z,5.67
2019-01-03T10:55:40.605Z,4.10
2019-01-03T10:58:10.748Z,4.37
2019-01-03T11:00:40.886Z,3.75
2019-01-03T11:03:10.976Z,5.78
2019-01-03T11:05:41.043Z,10.75
2019-01-03T11:08:11.120Z,5.30
2019-01-03T11:10:41.206Z,6.85
2019-01-03T11:13:11.280Z,6.30
2019-01-03T11:15:42.335Z,3.00
2019-01-03T11:18:15.432Z,7.62
2019-01-03T11:20:45.514Z,6.10
2019-01-03T11:23:16.504Z,5.40
2019-01-03T11:25:46.590Z,6.67
2019-01-03T11:28:22.468Z,5.10
2019-01-03T11:30:52.564Z,12.47
2019-01-03T11:33:24.634Z,8.30
2019-01-03T11:35:57.836Z,10.23
2019-01-03T11:38:28.869Z,6.47
2019-01-03T11:40:59.173Z,7.65
2019-01-03T11:43:37.206Z,7.35
2019-01-03T11:46:07.533Z,6.05
2019-01-03T11:48:38.764Z,9.45
2019-01-03T11:51:08.908Z,6.17
2019-01-03T11:53:38.988Z,3.40
2019-01-03T11:56:10.624Z,3.58
2019-01-03T11:58:41.941Z,5.60
2019-01-03T12:01:12.117Z,7.28
2019-01-03T12:03:42.306Z,6.95
2019-01-03T12:06:12.556Z,5.47
2019-01-03T12:08:42.700Z,8.08
2019-01-03T12:11:14.740Z,5.37
2019-01-03T12:13:45.704Z,3.85
2019-01-03T12:16:15.844Z,7.28
2019-01-03T12:18:46.093Z,6.55
2019-01-03T12:21:16.236Z,5.80
2019-01-03T12:23:46.318Z,5.45
2019-01-03T12:26:16.452Z,5.50
2019-01-03T12:28:46.592Z,3.02
2019-01-03T12:31:17.308Z,5.95
2019-01-03T12:33:47.551Z,4.25
2019-01-03T12:36:18.650Z,3.77
2019-01-03T12:38:49.342Z,2.47
2019-01-03T12:41:19.492Z,4.72
2019-01-03T12:43:49.628Z,6.92
2019-01-03T12:46:21.436Z,4.25
2019-01-03T12:48:55.332Z,7.70
2019-01-03T12:51:26.382Z,7.45
2019-01-03T12:53:56.492Z,3.20
2019-01-03T12:56:29.944Z,3.83
2019-01-03T12:59:00.036Z,5.67
2019-01-03T13:01:30.364Z,6.60
2019-01-03T13:04:01.452Z,3.22
2019-01-03T13:06:31.600Z,5.87
2019-01-03T13:09:10.308Z,7.42
2019-01-03T13:11:40.492Z,6.12
2019-01-03T13:14:10.607Z,11.55
2019-01-03T13:16:40.745Z,3.60
2019-01-03T13:19:10.872Z,6.80
2019-01-03T13:21:41.090Z,4.08
2019-01-03T13:24:12.293Z,4.70
2019-01-03T13:26:42.370Z,4.15
2019-01-03T13:29:14.817Z,12.03
2019-01-03T13:31:45.295Z,4.58
2019-01-03T13:34:15.370Z,4.65
2019-01-03T13:36:46.360Z,6.62
2019-01-03T13:39:17.658Z,2.85
2019-01-03T13:41:47.745Z,4.75
2019-01-03T13:44:20.924Z,2.75
2019-01-03T13:46:51.009Z,5.30
2019-01-03T13:49:22.032Z,7.67
2019-01-03T13:51:53.117Z,6.42
2019-01-03T13:54:23.221Z,8.98
2019-01-03T13:56:54.240Z,7.58
2019-01-03T13:59:25.284Z,9.10
2019-01-03T14:01:55.393Z,6.65
2019-01-03T14:04:25.464Z,8.95
2019-01-03T14:06:55.553Z,7.20
2019-01-03T14:09:25.620Z,10.82
2019-01-03T14:12:01.620Z,9.95
2019-01-03T14:14:31.701Z,5.08
2019-01-03T14:17:06.780Z,7.78
2019-01-03T14:19:37.828Z,8.65
2019-01-03T14:22:08.993Z,7.47
2019-01-03T14:24:39.085Z,9.13
2019-01-03T14:27:09.168Z,6.90
2019-01-03T14:29:39.242Z,6.10
2019-01-03T14:32:09.437Z,11.95
2019-01-03T14:34:39.508Z,14.90
2019-01-03T14:37:09.708Z,6.65
2019-01-03T14:39:45.593Z,9.63
2019-01-03T14:42:17.581Z,7.62
2019-01-03T14:44:49.861Z,6.70
2019-01-03T14:47:27.873Z,7.90
2019-01-03T14:49:57.956Z,5.67
2019-01-03T14:52:30.969Z,10.65
2019-01-03T14:55:02.949Z,9.98
2019-01-03T14:57:34.916Z,5.40
2019-01-03T15:00:09.683Z,9.10
2019-01-03T15:02:39.981Z,12.13
2019-01-03T15:05:14.023Z,7.15
2019-01-03T15:07:42.873Z,11.65
2019-01-03T15:10:13.024Z,12.33
2019-01-03T15:12:45.746Z,10.48
2019-01-03T15:15:15.837Z,8.15
2019-01-03T15:17:45.941Z,12.33
2019-01-03T15:20:16.037Z,11.15
2019-01-03T15:22:46.133Z,12.98
2019-01-03T15:25:21.956Z,9.05
2019-01-03T15:27:53.937Z,12.25
2019-01-03T15:30:24.016Z,13.38
2019-01-03T15:32:54.105Z,7.15
2019-01-03T15:35:24.222Z,10.63
2019-01-03T15:37:54.509Z,14.60
2019-01-03T15:40:24.697Z,15.40
2019-01-03T15:42:56.777Z,7.33
2019-01-03T15:45:32.950Z,18.20
2019-01-03T15:48:17.110Z,12.73
2019-01-03T15:50:52.977Z,14.38
2019-01-03T15:53:24.958Z,10.35
2019-01-03T15:55:55.049Z,8.15
2019-01-03T15:58:35.774Z,13.53
2019-01-03T16:01:07.789Z,11.45
2019-01-03T16:03:37.898Z,10.50
2019-01-03T16:06:08.953Z,11.90
2019-01-03T16:08:39.021Z,14.65
2019-01-03T16:11:11.121Z,21.90
2019-01-03T16:13:43.061Z,12.65
2019-01-03T16:16:13.149Z,10.95
2019-01-03T16:18:43.249Z,11.53
2019-01-03T16:21:14.313Z,14.85
2019-01-03T16:23:45.473Z,19.27
2019-01-03T16:26:19.610Z,13.83
2019-01-03T16:28:50.589Z,13.70
2019-01-03T16:31:20.761Z,14.50
2019-01-03T16:33:51.833Z,21.80
2019-01-03T16:36:22.037Z,18.15
2019-01-03T16:38:58.298Z,21.90
2019-01-03T16:41:29.301Z,10.98
2019-01-03T16:43:59.394Z,12.65
2019-01-03T16:46:35.502Z,17.12
2019-01-03T16:49:06.537Z,10.68
2019-01-03T16:51:36.636Z,20.88
2019-01-03T16:54:06.737Z,13.35
2019-01-03T16:56:36.885Z,17.55
2019-01-03T16:59:12.060Z,11.78
2019-01-03T17:01:42.185Z,13.03
2019-01-03T17:04:20.017Z,16.32
2019-01-03T17:06:51.506Z,13.53
2019-01-03T17:09:22.589Z,8.35
2019-01-03T17:11:54.954Z,23.80
2019-01-03T17:14:25.486Z,12.88
2019-01-03T17:16:56.397Z,22.15
2019-01-03T17:19:27.500Z,19.95
2019-01-03T17:21:57.601Z,24.18
2019-01-03T17:24:27.697Z,16.40
2019-01-03T17:26:57.858Z,13.15
2019-01-03T17:29:28.990Z,15.00
2019-01-03T17:32:00.221Z,17.82
2019-01-03T17:34:30.310Z,17.62
2019-01-03T17:37:00.741Z,12.80
2019-01-03T17:39:36.121Z,14.85
2019-01-03T17:42:06.209Z,26.80
2019-01-03T17:44:36.353Z,14.75
2019-01-03T17:47:06.703Z,17.23
2019-01-03T17:49:36.781Z,13.40
2019-01-03T17:52:07.213Z,18.85
2019-01-03T17:54:37.813Z,23.30
2019-01-03T17:57:08.409Z,20.35
2019-01-03T17:59:38.586Z,16.25
2019-01-03T18:02:11.113Z,20.45
2019-01-03T18:04:41.206Z,13.62
2019-01-03T18:07:12.633Z,16.15
2019-01-03T18:09:42.965Z,19.42
2019-01-03T18:12:14.055Z,18.87
2019-01-03T18:14:44.237Z,19.15
2019-01-03T18:17:17.901Z,16.65
2019-01-03T18:19:50.065Z,19.65
2019-01-03T18:22:22.105Z,18.57
2019-01-03T18:24:52.385Z,16.10
2019-01-03T18:27:22.498Z,10.00
2019-01-03T18:29:52.601Z,13.98
2019-01-03T18:32:22.781Z,13.20
2019-01-03T18:34:53.309Z,19.73
2019-01-03T18:37:30.497Z,14.75
2019-01-03T18:40:00.601Z,11.83
2019-01-03T18:42:33.217Z,17.70
2019-01-03T18:45:03.946Z,29.07
2019-01-03T18:47:36.913Z,11.25
2019-01-03T18:50:09.354Z,14.50
2019-01-03T18:52:39.513Z,16.00
2019-01-03T18:55:10.846Z,21.87
2019-01-03T18:57:55.168Z,23.73
2019-01-03T19:00:25.525Z,20.50
2019-01-03T19:02:55.653Z,19.65
2019-01-03T19:05:25.771Z,19.70
2019-01-03T19:08:02.305Z,17.10
2019-01-03T19:10:32.381Z,15.18
2019-01-03T19:13:02.545Z,13.95
2019-01-03T19:15:33.677Z,12.07
2019-01-03T19:18:08.870Z,17.27
2019-01-03T19:20:38.989Z,14.87
2019-01-03T19:23:09.101Z,17.75
2019-01-03T19:25:39.305Z,24.57
2019-01-03T19:28:10.293Z,13.43
2019-01-03T19:30:40.392Z,17.00
2019-01-03T19:33:11.412Z,14.85
2019-01-03T19:35:41.501Z,13.65
2019-01-03T19:38:11.677Z,17.48
2019-01-03T19:40:41.825Z,16.65
2019-01-03T19:43:11.917Z,17.42
2019-01-03T19:45:42.449Z,17.20
2019-01-03T19:48:20.517Z,17.35
2019-01-03T19:50:50.691Z,17.73
2019-01-03T19:53:20.877Z,20.50
2019-01-03T19:55:51.801Z,13.58
2019-01-03T19:58:23.933Z,19.17
2019-01-03T20:00:56.029Z,16.73
2019-01-03T20:03:26.149Z,21.93
2019-01-03T20:05:56.748Z,29.37
2019-01-03T20:08:28.400Z,17.07
2019-01-03T20:11:00.489Z,17.87
2019-01-03T20:13:31.542Z,19.90
2019-01-03T20:16:04.025Z,17.02
2019-01-03T20:18:34.318Z,20.95
2019-01-03T20:21:04.859Z,18.48
2019-01-03T20:23:41.204Z,18.52
2019-01-03T20:26:12.477Z,20.08
2019-01-03T20:28:44.653Z,23.07
2019-01-03T20:31:17.609Z,20.40
2019-01-03T20:33:55.297Z,25.90
2019-01-03T20:36:25.835Z,16.17
2019-01-03T20:38:57.149Z,20.77
2019-01-03T20:41:32.249Z,19.92
2019-01-03T20:44:02.385Z,22.98
2019-01-03T20:46:32.537Z,18.00
2019-01-03T20:49:03.886Z,18.02
2019-01-03T20:51:33.988Z,14.35
2019-01-03T20:54:05.079Z,15.32
2019-01-03T20:56:39.811Z,19.80
2019-01-03T20:59:10.861Z,18.85
2019-01-03T21:01:40.985Z,21.55
2019-01-03T21:04:11.148Z,15.23
2019-01-03T21:06:41.217Z,25.90
2019-01-03T21:09:11.633Z,14.78
2019-01-03T21:11:43.738Z,18.77
2019-01-03T21:14:14.901Z,17.23
2019-01-03T21:16:46.173Z,13.90
2019-01-03T21:19:16.298Z,15.05
2019-01-03T21:21:46.385Z,15.25
2019-01-03T21:24:16.542Z,14.93
2019-01-03T21:26:46.685Z,22.48
2019-01-03T21:29:17.705Z,15.25
2019-01-03T21:31:48.745Z,17.82
2019-01-03T21:34:21.033Z,19.57
2019-01-03T21:36:53.137Z,22.22
2019-01-03T21:39:23.635Z,17.37
2019-01-03T21:41:59.697Z,17.37
2019-01-03T21:44:29.766Z,20.00
2019-01-03T21:47:00.816Z,18.70
2019-01-03T21:49:39.861Z,17.02
2019-01-03T21:52:10.889Z,18.98
2019-01-03T21:54:42.950Z,17.82
2019-01-03T21:57:14.241Z,24.82
2019-01-03T21:59:44.329Z,19.50
2019-01-03T22:02:14.433Z,16.80
2019-01-03T22:04:44.538Z,15.15
2019-01-03T22:07:19.694Z,13.20
2019-01-03T22:09:49.816Z,19.00
2019-01-03T22:12:20.813Z,16.02
2019-01-03T22:14:50.905Z,21.25
2019-01-03T22:17:21.916Z,27.15
2019-01-03T22:19:56.005Z,18.15
2019-01-03T22:22:33.948Z,18.27
2019-01-03T22:25:05.169Z,20.68
2019-01-03T22:27:38.425Z,19.20
2019-01-03T22:30:10.828Z,20.32
2019-01-03T22:32:40.937Z,15.95
2019-01-03T22:35:11.061Z,16.65
2019-01-03T22:37:41.158Z,15.55
2019-01-03T22:40:12.219Z,19.77
2019-01-03T22:42:42.304Z,17.20
2019-01-03T22:45:13.394Z,19.60
2019-01-03T22:47:44.429Z,20.05
2019-01-03T22:50:14.699Z,17.20
2019-01-03T22:52:47.841Z,21.90
2019-01-03T22:55:18.888Z,14.95
2019-01-03T22:57:49.041Z,23.67
2019-01-03T23:00:39.296Z,19.82
2019-01-03T23:03:15.637Z,22.32
2019-01-03T23:05:49.841Z,23.75
2019-01-03T23:08:20.909Z,18.10
2019-01-03T23:10:50.989Z,19.95
2019-01-03T23:13:27.150Z,15.65
2019-01-03T23:16:02.239Z,16.90
2019-01-03T23:18:32.321Z,21.57
2019-01-03T23:21:07.389Z,22.93
2019-01-03T23:23:37.477Z,20.32
2019-01-03T23:26:09.561Z,25.37
2019-01-03T23:28:41.681Z,17.23
2019-01-03T23:31:12.774Z,19.75
2019-01-03T23:33:43.273Z,19.07
2019-01-03T23:36:19.761Z,20.85
2019-01-03T23:38:55.809Z,18.10
2019-01-03T23:41:25.893Z,20.12
2019-01-03T23:44:01.683Z,22.62
2019-01-03T23:46:32.722Z,20.57
2019-01-03T23:49:02.809Z,19.25
2019-01-03T23:51:32.901Z,28.65
2019-01-03T23:54:03.010Z,18.57
2019-01-03T23:56:37.289Z,24.70
2019-01-03T23:59:11.506Z,18.15
